sensor_id;sensor_type;location;lat;lon;timestamp;pressure;altitude;pressure_sealevel;temperature;humidity
6208;BME280;3137;51.550;7.060;2022-10-31T00:00:14;50170.78;;;-142.65;90.65
6208;BME280;3137;51.550;7.060;2022-10-31T00:02:41;50170.78;;;-142.65;90.54
6208;BME280;3137;51.550;7.060;2022-10-31T00:07:34;50162.81;;;-142.65;90.68
6208;BME280;3137;51.550;7.060;2022-10-31T00:10:00;50168.78;;;-142.65;90.59
6208;BME280;3137;51.550;7.060;2022-10-31T00:12:27;50178.75;;;-142.65;90.73
6208;BME280;3137;51.550;7.060;2022-10-31T00:14:53;50168.78;;;-142.65;90.45
6208;BME280;3137;51.550;7.060;2022-10-31T00:17:19;50170.78;;;-142.65;90.87
6208;BME280;3137;51.550;7.060;2022-10-31T00:19:46;50172.78;;;-142.65;90.83
6208;BME280;3137;51.550;7.060;2022-10-31T00:22:12;50168.78;;;-142.65;90.97
6208;BME280;3137;51.550;7.060;2022-10-31T00:24:38;50178.75;;;-142.65;90.79
6208;BME280;3137;51.550;7.060;2022-10-31T00:27:05;50172.78;;;-142.65;90.79
6208;BME280;3137;51.550;7.060;2022-10-31T00:31:57;50174.75;;;-142.65;90.50
6208;BME280;3137;51.550;7.060;2022-10-31T00:34:24;50174.75;;;-142.65;90.54
6208;BME280;3137;51.550;7.060;2022-10-31T00:36:50;50170.78;;;-142.65;90.28
6208;BME280;3137;51.550;7.060;2022-10-31T00:39:17;50170.78;;;-142.65;90.52
6208;BME280;3137;51.550;7.060;2022-10-31T00:41:43;50170.78;;;-142.65;90.49
6208;BME280;3137;51.550;7.060;2022-10-31T00:44:11;50172.78;;;-142.65;90.70
6208;BME280;3137;51.550;7.060;2022-10-31T00:46:37;50176.75;;;-142.65;90.88
6208;BME280;3137;51.550;7.060;2022-10-31T00:49:03;50168.78;;;-142.65;90.78
6208;BME280;3137;51.550;7.060;2022-10-31T00:51:30;50178.75;;;-142.65;90.52
6208;BME280;3137;51.550;7.060;2022-10-31T00:53:57;50174.75;;;-142.65;90.46
6208;BME280;3137;51.550;7.060;2022-10-31T00:58:50;50174.75;;;-142.65;90.81
6208;BME280;3137;51.550;7.060;2022-10-31T01:01:16;50172.78;;;-142.65;90.73
6208;BME280;3137;51.550;7.060;2022-10-31T01:03:43;50174.75;;;-142.65;90.76
6208;BME280;3137;51.550;7.060;2022-10-31T01:06:12;50168.78;;;-142.65;91.01
6208;BME280;3137;51.550;7.060;2022-10-31T01:08:39;50170.78;;;-142.65;91.11
6208;BME280;3137;51.550;7.060;2022-10-31T01:11:12;50176.75;;;-142.65;91.35
6208;BME280;3137;51.550;7.060;2022-10-31T01:16:07;50170.78;;;-142.65;91.48
6208;BME280;3137;51.550;7.060;2022-10-31T01:21:09;50178.75;;;-142.65;92.32
6208;BME280;3137;51.550;7.060;2022-10-31T01:23:36;50168.78;;;-142.65;92.21
6208;BME280;3137;51.550;7.060;2022-10-31T01:26:17;50168.78;;;-142.65;92.13
6208;BME280;3137;51.550;7.060;2022-10-31T01:31:19;50168.78;;;-142.65;92.35
6208;BME280;3137;51.550;7.060;2022-10-31T01:33:47;50182.72;;;-142.65;92.47
6208;BME280;3137;51.550;7.060;2022-10-31T01:38:50;50170.78;;;-142.65;92.83
6208;BME280;3137;51.550;7.060;2022-10-31T01:41:20;50170.78;;;-142.65;92.41
6208;BME280;3137;51.550;7.060;2022-10-31T01:44:02;50176.75;;;-142.65;92.62
6208;BME280;3137;51.550;7.060;2022-10-31T01:46:35;50174.75;;;-142.65;92.78
6208;BME280;3137;51.550;7.060;2022-10-31T01:49:17;50176.75;;;-142.65;92.89
6208;BME280;3137;51.550;7.060;2022-10-31T01:51:56;50178.75;;;-142.65;92.96
6208;BME280;3137;51.550;7.060;2022-10-31T01:54:28;50174.75;;;-142.65;93.16
6208;BME280;3137;51.550;7.060;2022-10-31T01:56:57;50174.75;;;-142.65;93.28
6208;BME280;3137;51.550;7.060;2022-10-31T01:59:28;50172.78;;;-142.65;93.26
6208;BME280;3137;51.550;7.060;2022-10-31T02:01:56;50168.78;;;-142.65;93.48
6208;BME280;3137;51.550;7.060;2022-10-31T02:07:02;50170.78;;;-142.65;93.69
6208;BME280;3137;51.550;7.060;2022-10-31T02:09:31;50176.75;;;-142.65;93.99
6208;BME280;3137;51.550;7.060;2022-10-31T02:12:01;50170.78;;;-142.65;93.91
6208;BME280;3137;51.550;7.060;2022-10-31T02:14:29;50168.78;;;-142.65;93.85
6208;BME280;3137;51.550;7.060;2022-10-31T02:16:57;50172.78;;;-142.65;94.01
6208;BME280;3137;51.550;7.060;2022-10-31T02:30:18;50176.75;;;-142.65;93.47
6208;BME280;3137;51.550;7.060;2022-10-31T02:33:00;50170.78;;;-142.65;92.81
6208;BME280;3137;51.550;7.060;2022-10-31T02:35:44;50176.75;;;-142.65;92.92
6208;BME280;3137;51.550;7.060;2022-10-31T02:43:54;50168.78;;;-142.65;93.29
6208;BME280;3137;51.550;7.060;2022-10-31T02:54:19;50168.78;;;-142.65;93.93
6208;BME280;3137;51.550;7.060;2022-10-31T02:56:54;50172.78;;;-142.65;94.19
6208;BME280;3137;51.550;7.060;2022-10-31T02:59:23;50176.75;;;-142.65;94.38
6208;BME280;3137;51.550;7.060;2022-10-31T03:07:46;50184.72;;;-142.65;94.71
6208;BME280;3137;51.550;7.060;2022-10-31T03:12:57;50174.75;;;-142.65;94.63
6208;BME280;3137;51.550;7.060;2022-10-31T03:15:30;50170.78;;;-142.65;94.61
6208;BME280;3137;51.550;7.060;2022-10-31T03:20:39;50174.75;;;-142.65;94.91
6208;BME280;3137;51.550;7.060;2022-10-31T03:23:11;50170.78;;;-142.65;94.93
6208;BME280;3137;51.550;7.060;2022-10-31T03:25:40;50176.75;;;-142.65;94.98
6208;BME280;3137;51.550;7.060;2022-10-31T03:28:10;50172.78;;;-142.65;94.93
6208;BME280;3137;51.550;7.060;2022-10-31T03:30:41;50170.78;;;-142.65;95.25
6208;BME280;3137;51.550;7.060;2022-10-31T03:33:12;50178.75;;;-142.65;95.30
6208;BME280;3137;51.550;7.060;2022-10-31T03:35:42;50182.72;;;-142.65;95.48
6208;BME280;3137;51.550;7.060;2022-10-31T03:38:12;50178.75;;;-142.65;95.49
6208;BME280;3137;51.550;7.060;2022-10-31T03:40:43;50168.78;;;-142.65;95.54
6208;BME280;3137;51.550;7.060;2022-10-31T03:43:16;50170.78;;;-142.65;95.64
6208;BME280;3137;51.550;7.060;2022-10-31T03:45:46;50170.78;;;-142.65;95.68
6208;BME280;3137;51.550;7.060;2022-10-31T03:51:00;50176.75;;;-142.65;95.73
6208;BME280;3137;51.550;7.060;2022-10-31T03:53:45;50168.78;;;-142.65;95.89
6208;BME280;3137;51.550;7.060;2022-10-31T03:58:57;50170.78;;;-142.65;95.82
6208;BME280;3137;51.550;7.060;2022-10-31T04:01:30;50172.78;;;-142.65;95.81
6208;BME280;3137;51.550;7.060;2022-10-31T04:03:58;50178.75;;;-142.65;95.87
6208;BME280;3137;51.550;7.060;2022-10-31T04:06:26;50172.78;;;-142.65;95.94
6208;BME280;3137;51.550;7.060;2022-10-31T04:09:02;50176.75;;;-142.65;95.76
6208;BME280;3137;51.550;7.060;2022-10-31T04:11:34;50170.78;;;-142.65;95.73
6208;BME280;3137;51.550;7.060;2022-10-31T04:14:24;50174.75;;;-142.65;95.71
6208;BME280;3137;51.550;7.060;2022-10-31T04:16:51;50182.72;;;-142.65;95.84
6208;BME280;3137;51.550;7.060;2022-10-31T04:19:22;50170.78;;;-142.65;95.89
6208;BME280;3137;51.550;7.060;2022-10-31T04:21:50;50182.72;;;-142.65;95.62
6208;BME280;3137;51.550;7.060;2022-10-31T04:24:16;50170.78;;;-142.65;95.56
6208;BME280;3137;51.550;7.060;2022-10-31T04:26:43;50178.75;;;-142.65;95.54
6208;BME280;3137;51.550;7.060;2022-10-31T04:29:09;50178.75;;;-142.65;95.57
6208;BME280;3137;51.550;7.060;2022-10-31T04:31:37;50176.75;;;-142.65;95.60
6208;BME280;3137;51.550;7.060;2022-10-31T04:34:03;50172.78;;;-142.65;95.56
6208;BME280;3137;51.550;7.060;2022-10-31T04:36:29;50168.78;;;-142.65;95.65
6208;BME280;3137;51.550;7.060;2022-10-31T04:38:56;50168.78;;;-142.65;95.68
6208;BME280;3137;51.550;7.060;2022-10-31T04:41:39;50170.78;;;-142.65;95.71
6208;BME280;3137;51.550;7.060;2022-10-31T04:44:13;50178.75;;;-142.65;95.84
6208;BME280;3137;51.550;7.060;2022-10-31T04:46:39;50174.75;;;-142.65;95.86
6208;BME280;3137;51.550;7.060;2022-10-31T04:49:07;50176.75;;;-142.65;95.81
6208;BME280;3137;51.550;7.060;2022-10-31T04:51:34;50172.78;;;-142.65;95.75
6208;BME280;3137;51.550;7.060;2022-10-31T04:54:00;50180.75;;;-142.65;95.81
6208;BME280;3137;51.550;7.060;2022-10-31T04:56:26;50178.75;;;-142.65;95.96
6208;BME280;3137;51.550;7.060;2022-10-31T04:59:03;50172.78;;;-142.65;96.07
6208;BME280;3137;51.550;7.060;2022-10-31T05:01:42;50172.78;;;-142.65;96.24
6208;BME280;3137;51.550;7.060;2022-10-31T05:04:09;50180.75;;;-142.65;96.21
6208;BME280;3137;51.550;7.060;2022-10-31T05:06:36;50168.78;;;-142.65;96.33
6208;BME280;3137;51.550;7.060;2022-10-31T05:09:02;50172.78;;;-142.65;96.39
6208;BME280;3137;51.550;7.060;2022-10-31T05:11:29;50174.75;;;-142.65;96.42
6208;BME280;3137;51.550;7.060;2022-10-31T05:14:05;50172.78;;;-142.65;96.48
6208;BME280;3137;51.550;7.060;2022-10-31T05:16:52;50182.72;;;-142.65;96.47
6208;BME280;3137;51.550;7.060;2022-10-31T05:19:37;50178.75;;;-142.65;96.16
6208;BME280;3137;51.550;7.060;2022-10-31T05:24:48;50168.78;;;-142.65;96.20
6208;BME280;3137;51.550;7.060;2022-10-31T05:27:14;50174.75;;;-142.65;96.23
6208;BME280;3137;51.550;7.060;2022-10-31T05:29:41;50182.72;;;-142.65;96.32
6208;BME280;3137;51.550;7.060;2022-10-31T05:32:07;50182.72;;;-142.65;96.44
6208;BME280;3137;51.550;7.060;2022-10-31T05:34:52;50170.78;;;-142.65;96.38
6208;BME280;3137;51.550;7.060;2022-10-31T05:37:41;50174.75;;;-142.65;96.54
6208;BME280;3137;51.550;7.060;2022-10-31T05:40:10;50174.75;;;-142.65;96.53
6208;BME280;3137;51.550;7.060;2022-10-31T05:42:40;50172.78;;;-142.65;96.41
6208;BME280;3137;51.550;7.060;2022-10-31T05:45:09;50172.78;;;-142.65;96.67
6208;BME280;3137;51.550;7.060;2022-10-31T05:47:58;50174.75;;;-142.65;96.64
6208;BME280;3137;51.550;7.060;2022-10-31T05:50:55;50170.78;;;-142.65;96.81
6208;BME280;3137;51.550;7.060;2022-10-31T05:53:23;50174.75;;;-142.65;96.88
6208;BME280;3137;51.550;7.060;2022-10-31T05:55:49;50174.75;;;-142.65;97.00
6208;BME280;3137;51.550;7.060;2022-10-31T05:58:18;50176.75;;;-142.65;97.08
6208;BME280;3137;51.550;7.060;2022-10-31T06:00:52;50174.75;;;-142.65;97.19
6208;BME280;3137;51.550;7.060;2022-10-31T06:03:19;50170.78;;;-142.65;97.28
6208;BME280;3137;51.550;7.060;2022-10-31T06:05:56;50182.72;;;-142.65;97.37
6208;BME280;3137;51.550;7.060;2022-10-31T06:08:26;50168.78;;;-142.65;97.49
6208;BME280;3137;51.550;7.060;2022-10-31T06:10:54;50176.75;;;-142.65;97.55
6208;BME280;3137;51.550;7.060;2022-10-31T06:13:40;50170.78;;;-142.65;97.64
6208;BME280;3137;51.550;7.060;2022-10-31T06:16:15;50174.75;;;-142.65;97.59
6208;BME280;3137;51.550;7.060;2022-10-31T06:21:10;50170.78;;;-142.65;97.71
6208;BME280;3137;51.550;7.060;2022-10-31T06:23:40;50174.75;;;-142.65;97.69
6208;BME280;3137;51.550;7.060;2022-10-31T06:26:25;50174.75;;;-142.65;97.73
6208;BME280;3137;51.550;7.060;2022-10-31T06:28:52;50178.75;;;-142.65;97.63
6208;BME280;3137;51.550;7.060;2022-10-31T06:31:40;50182.72;;;-142.65;97.69
6208;BME280;3137;51.550;7.060;2022-10-31T06:36:33;50178.75;;;-142.65;97.73
6208;BME280;3137;51.550;7.060;2022-10-31T06:39:00;50174.75;;;-142.65;97.90
6208;BME280;3137;51.550;7.060;2022-10-31T06:41:26;50180.75;;;-142.65;97.97
6208;BME280;3137;51.550;7.060;2022-10-31T06:43:53;50168.78;;;-142.65;98.02
6208;BME280;3137;51.550;7.060;2022-10-31T06:46:51;50174.75;;;-142.65;98.22
6208;BME280;3137;51.550;7.060;2022-10-31T06:52:09;50170.78;;;-142.65;98.49
6208;BME280;3137;51.550;7.060;2022-10-31T06:54:35;50172.78;;;-142.65;98.56
6208;BME280;3137;51.550;7.060;2022-10-31T06:59:29;50170.78;;;-142.65;98.63
6208;BME280;3137;51.550;7.060;2022-10-31T07:02:04;50174.75;;;-142.65;98.80
6208;BME280;3137;51.550;7.060;2022-10-31T07:04:32;50178.75;;;-142.65;98.89
6208;BME280;3137;51.550;7.060;2022-10-31T07:06:58;50176.75;;;-142.65;98.94
6208;BME280;3137;51.550;7.060;2022-10-31T07:11:52;50170.78;;;-142.65;98.84
6208;BME280;3137;51.550;7.060;2022-10-31T07:14:19;50174.75;;;-142.65;98.94
6208;BME280;3137;51.550;7.060;2022-10-31T07:16:50;50172.78;;;-142.65;98.86
6208;BME280;3137;51.550;7.060;2022-10-31T07:21:51;50170.78;;;-142.65;98.87
6208;BME280;3137;51.550;7.060;2022-10-31T07:24:17;50174.75;;;-142.65;98.79
6208;BME280;3137;51.550;7.060;2022-10-31T07:27:06;50168.78;;;-142.65;98.77
6208;BME280;3137;51.550;7.060;2022-10-31T07:29:33;50174.75;;;-142.65;98.85
6208;BME280;3137;51.550;7.060;2022-10-31T07:32:00;50170.78;;;-142.65;98.83
6208;BME280;3137;51.550;7.060;2022-10-31T07:37:12;50176.75;;;-142.65;99.00
6208;BME280;3137;51.550;7.060;2022-10-31T07:42:06;50170.78;;;-142.65;98.89
6208;BME280;3137;51.550;7.060;2022-10-31T07:44:33;50172.78;;;-142.65;99.15
6208;BME280;3137;51.550;7.060;2022-10-31T07:47:18;50184.72;;;-142.65;98.99
6208;BME280;3137;51.550;7.060;2022-10-31T07:50:03;50176.75;;;-142.65;98.93
6208;BME280;3137;51.550;7.060;2022-10-31T07:55:53;50178.75;;;-142.65;99.09
6208;BME280;3137;51.550;7.060;2022-10-31T07:58:24;50174.75;;;-142.65;99.17
6208;BME280;3137;51.550;7.060;2022-10-31T08:03:28;50176.75;;;-142.65;99.10
6208;BME280;3137;51.550;7.060;2022-10-31T08:06:26;50170.78;;;-142.65;98.86
6208;BME280;3137;51.550;7.060;2022-10-31T08:09:23;50174.75;;;-142.65;99.04
6208;BME280;3137;51.550;7.060;2022-10-31T08:11:53;50176.75;;;-142.65;98.98
6208;BME280;3137;51.550;7.060;2022-10-31T08:14:19;50164.81;;;-142.65;98.95
6208;BME280;3137;51.550;7.060;2022-10-31T08:16:46;50170.78;;;-142.65;98.88
6208;BME280;3137;51.550;7.060;2022-10-31T08:19:12;50172.78;;;-142.65;98.81
6208;BME280;3137;51.550;7.060;2022-10-31T08:21:39;50176.75;;;-142.65;98.81
6208;BME280;3137;51.550;7.060;2022-10-31T08:24:07;50170.78;;;-142.65;98.76
6208;BME280;3137;51.550;7.060;2022-10-31T08:26:33;50168.78;;;-142.65;98.85
6208;BME280;3137;51.550;7.060;2022-10-31T08:29:01;50178.75;;;-142.65;98.49
6208;BME280;3137;51.550;7.060;2022-10-31T08:31:31;50170.78;;;-142.65;98.42
6208;BME280;3137;51.550;7.060;2022-10-31T08:34:20;50170.78;;;-142.65;98.27
6208;BME280;3137;51.550;7.060;2022-10-31T08:39:39;50180.75;;;-142.65;97.68
6208;BME280;3137;51.550;7.060;2022-10-31T08:42:05;50174.75;;;-142.65;97.42
6208;BME280;3137;51.550;7.060;2022-10-31T08:44:32;50176.75;;;-142.65;97.21
6208;BME280;3137;51.550;7.060;2022-10-31T08:46:58;50170.78;;;-142.65;96.91
6208;BME280;3137;51.550;7.060;2022-10-31T08:49:24;50174.75;;;-142.65;96.68
6208;BME280;3137;51.550;7.060;2022-10-31T08:51:51;50168.78;;;-142.65;96.34
6208;BME280;3137;51.550;7.060;2022-10-31T08:54:19;50174.75;;;-142.65;96.00
6208;BME280;3137;51.550;7.060;2022-10-31T09:04:44;50174.75;;;-142.65;94.34
6208;BME280;3137;51.550;7.060;2022-10-31T09:07:10;50176.75;;;-142.65;94.36
6208;BME280;3137;51.550;7.060;2022-10-31T09:09:53;50170.78;;;-142.65;93.96
6208;BME280;3137;51.550;7.060;2022-10-31T09:15:04;50180.75;;;-142.65;92.82
6208;BME280;3137;51.550;7.060;2022-10-31T09:17:48;50174.75;;;-142.65;92.30
6208;BME280;3137;51.550;7.060;2022-10-31T09:20:39;50172.78;;;-142.65;91.60
6208;BME280;3137;51.550;7.060;2022-10-31T09:25:38;50170.78;;;-142.65;91.08
6208;BME280;3137;51.550;7.060;2022-10-31T09:28:24;50170.78;;;-142.65;91.29
6208;BME280;3137;51.550;7.060;2022-10-31T09:30:52;50164.81;;;-142.65;91.05
6208;BME280;3137;51.550;7.060;2022-10-31T09:36:43;50170.78;;;-142.65;89.95
6208;BME280;3137;51.550;7.060;2022-10-31T09:39:23;50164.81;;;-142.65;89.98
6208;BME280;3137;51.550;7.060;2022-10-31T09:51:08;50170.78;;;-142.65;88.39
6208;BME280;3137;51.550;7.060;2022-10-31T09:53:50;50172.78;;;-142.65;87.94
6208;BME280;3137;51.550;7.060;2022-10-31T09:58:51;50164.81;;;-142.65;87.75
6208;BME280;3137;51.550;7.060;2022-10-31T10:01:28;50174.75;;;-142.65;88.27
6208;BME280;3137;51.550;7.060;2022-10-31T10:04:02;50180.75;;;-142.65;88.14
6208;BME280;3137;51.550;7.060;2022-10-31T10:06:56;50164.81;;;-142.65;88.14
6208;BME280;3137;51.550;7.060;2022-10-31T10:09:41;50174.75;;;-142.65;87.93
6208;BME280;3137;51.550;7.060;2022-10-31T10:13:00;50170.78;;;-142.65;87.98
6208;BME280;3137;51.550;7.060;2022-10-31T10:15:51;50170.78;;;-142.65;87.96
6208;BME280;3137;51.550;7.060;2022-10-31T10:23:51;50176.75;;;-142.65;87.64
6208;BME280;3137;51.550;7.060;2022-10-31T10:26:21;50170.78;;;-142.65;87.26
6208;BME280;3137;51.550;7.060;2022-10-31T10:28:57;50170.78;;;-142.65;86.67
6208;BME280;3137;51.550;7.060;2022-10-31T10:34:28;50178.75;;;-142.65;84.95
6208;BME280;3137;51.550;7.060;2022-10-31T10:37:00;50162.81;;;-142.65;83.55
6208;BME280;3137;51.550;7.060;2022-10-31T10:39:35;50170.78;;;-142.65;83.09
6208;BME280;3137;51.550;7.060;2022-10-31T10:42:10;50170.78;;;-142.65;82.57
6208;BME280;3137;51.550;7.060;2022-10-31T10:44:57;50170.78;;;-142.65;82.80
6208;BME280;3137;51.550;7.060;2022-10-31T10:47:44;50170.78;;;-142.65;83.00
6208;BME280;3137;51.550;7.060;2022-10-31T10:50:19;50174.75;;;-142.65;83.08
6208;BME280;3137;51.550;7.060;2022-10-31T10:58:09;50170.78;;;-142.65;82.13
6208;BME280;3137;51.550;7.060;2022-10-31T11:00:44;50170.78;;;-142.65;82.71
6208;BME280;3137;51.550;7.060;2022-10-31T11:03:17;50170.78;;;-142.65;82.73
6208;BME280;3137;51.550;7.060;2022-10-31T11:05:56;50164.81;;;-142.65;82.45
6208;BME280;3137;51.550;7.060;2022-10-31T11:11:02;50170.78;;;-142.65;82.51
6208;BME280;3137;51.550;7.060;2022-10-31T11:13:30;50164.81;;;-142.65;82.02
6208;BME280;3137;51.550;7.060;2022-10-31T11:18:37;50174.75;;;-142.65;82.05
6208;BME280;3137;51.550;7.060;2022-10-31T11:23:31;50168.78;;;-142.65;81.94
6208;BME280;3137;51.550;7.060;2022-10-31T11:30:58;50170.78;;;-142.65;81.77
6208;BME280;3137;51.550;7.060;2022-10-31T11:36:01;50170.78;;;-142.65;81.45
6208;BME280;3137;51.550;7.060;2022-10-31T11:41:14;50170.78;;;-142.65;81.34
6208;BME280;3137;51.550;7.060;2022-10-31T11:46:19;50164.81;;;-142.65;80.58
6208;BME280;3137;51.550;7.060;2022-10-31T11:48:49;50168.78;;;-142.65;80.25
6208;BME280;3137;51.550;7.060;2022-10-31T11:53:53;50168.78;;;-142.65;79.73
6208;BME280;3137;51.550;7.060;2022-10-31T11:59:12;50162.81;;;-142.65;79.30
6208;BME280;3137;51.550;7.060;2022-10-31T12:01:47;50172.78;;;-142.65;79.46
6208;BME280;3137;51.550;7.060;2022-10-31T12:04:15;50168.78;;;-142.65;79.56
6208;BME280;3137;51.550;7.060;2022-10-31T12:06:44;50170.78;;;-142.65;79.30
6208;BME280;3137;51.550;7.060;2022-10-31T12:09:28;50164.81;;;-142.65;79.14
6208;BME280;3137;51.550;7.060;2022-10-31T12:12:21;50170.78;;;-142.65;79.59
6208;BME280;3137;51.550;7.060;2022-10-31T12:28:37;50174.75;;;-142.65;79.41
6208;BME280;3137;51.550;7.060;2022-10-31T12:34:33;50168.78;;;-142.65;79.85
6208;BME280;3137;51.550;7.060;2022-10-31T12:37:30;50170.78;;;-142.65;79.37
6208;BME280;3137;51.550;7.060;2022-10-31T12:40:15;50162.81;;;-142.65;79.37
6208;BME280;3137;51.550;7.060;2022-10-31T12:45:44;50164.81;;;-142.65;79.45
6208;BME280;3137;51.550;7.060;2022-10-31T12:56:49;50168.78;;;-142.65;78.77
6208;BME280;3137;51.550;7.060;2022-10-31T13:01:55;50170.78;;;-142.65;78.35
6208;BME280;3137;51.550;7.060;2022-10-31T13:07:01;50168.78;;;-142.65;78.51
6208;BME280;3137;51.550;7.060;2022-10-31T13:09:41;50164.81;;;-142.65;78.36
6208;BME280;3137;51.550;7.060;2022-10-31T13:14:43;50164.81;;;-142.65;77.46
6208;BME280;3137;51.550;7.060;2022-10-31T13:17:27;50164.81;;;-142.65;77.68
6208;BME280;3137;51.550;7.060;2022-10-31T13:20:16;50164.81;;;-142.65;77.51
6208;BME280;3137;51.550;7.060;2022-10-31T13:25:20;50164.81;;;-142.65;77.85
6208;BME280;3137;51.550;7.060;2022-10-31T13:27:54;50170.78;;;-142.65;77.46
6208;BME280;3137;51.550;7.060;2022-10-31T13:30:23;50170.78;;;-142.65;77.80
6208;BME280;3137;51.550;7.060;2022-10-31T13:32:59;50170.78;;;-142.65;77.27
6208;BME280;3137;51.550;7.060;2022-10-31T13:35:40;50170.78;;;-142.65;77.71
6208;BME280;3137;51.550;7.060;2022-10-31T13:40:54;50170.78;;;-142.65;77.54
6208;BME280;3137;51.550;7.060;2022-10-31T13:45:55;50164.81;;;-142.65;77.25
6208;BME280;3137;51.550;7.060;2022-10-31T13:51:03;50172.78;;;-142.65;78.28
6208;BME280;3137;51.550;7.060;2022-10-31T13:58:35;50172.78;;;-142.65;77.92
6208;BME280;3137;51.550;7.060;2022-10-31T14:01:19;50164.81;;;-142.65;77.60
6208;BME280;3137;51.550;7.060;2022-10-31T14:03:56;50168.78;;;-142.65;77.86
6208;BME280;3137;51.550;7.060;2022-10-31T14:16:56;50164.81;;;-142.65;78.57
6208;BME280;3137;51.550;7.060;2022-10-31T14:31:52;50164.81;;;-142.65;78.32
6208;BME280;3137;51.550;7.060;2022-10-31T14:34:25;50162.81;;;-142.65;78.02
6208;BME280;3137;51.550;7.060;2022-10-31T14:42:15;50174.75;;;-142.65;77.68
6208;BME280;3137;51.550;7.060;2022-10-31T14:44:55;50162.81;;;-142.65;77.65
6208;BME280;3137;51.550;7.060;2022-10-31T14:47:51;50168.78;;;-142.65;77.92
6208;BME280;3137;51.550;7.060;2022-10-31T14:52:54;50168.78;;;-142.65;77.66
6208;BME280;3137;51.550;7.060;2022-10-31T14:57:56;50170.78;;;-142.65;77.98
6208;BME280;3137;51.550;7.060;2022-10-31T15:05:34;50162.81;;;-142.65;78.29
6208;BME280;3137;51.550;7.060;2022-10-31T15:15:25;50168.78;;;-142.65;78.42
6208;BME280;3137;51.550;7.060;2022-10-31T15:17:54;50170.78;;;-142.65;78.65
6208;BME280;3137;51.550;7.060;2022-10-31T15:27:49;50170.78;;;-142.65;79.26
6208;BME280;3137;51.550;7.060;2022-10-31T15:35:26;50168.78;;;-142.65;79.44
6208;BME280;3137;51.550;7.060;2022-10-31T15:40:22;50162.81;;;-142.65;79.95
6208;BME280;3137;51.550;7.060;2022-10-31T15:42:53;50174.75;;;-142.65;80.08
6208;BME280;3137;51.550;7.060;2022-10-31T15:45:25;50162.81;;;-142.65;80.13
6208;BME280;3137;51.550;7.060;2022-10-31T15:47:57;50172.78;;;-142.65;80.23
6208;BME280;3137;51.550;7.060;2022-10-31T15:55:34;50164.81;;;-142.65;81.44
6208;BME280;3137;51.550;7.060;2022-10-31T15:58:03;50162.81;;;-142.65;81.44
6208;BME280;3137;51.550;7.060;2022-10-31T16:00:38;50172.78;;;-142.65;81.67
6208;BME280;3137;51.550;7.060;2022-10-31T16:05:44;50168.78;;;-142.65;82.23
6208;BME280;3137;51.550;7.060;2022-10-31T16:21:10;50164.81;;;-142.65;83.75
6208;BME280;3137;51.550;7.060;2022-10-31T16:26:08;50164.81;;;-142.65;83.83
6208;BME280;3137;51.550;7.060;2022-10-31T16:28:36;50170.78;;;-142.65;84.17
6208;BME280;3137;51.550;7.060;2022-10-31T16:31:14;50162.81;;;-142.65;84.43
6208;BME280;3137;51.550;7.060;2022-10-31T16:33:41;50168.78;;;-142.65;84.58
6208;BME280;3137;51.550;7.060;2022-10-31T16:43:54;50168.78;;;-142.65;85.59
6208;BME280;3137;51.550;7.060;2022-10-31T16:46:24;50162.81;;;-142.65;85.70
6208;BME280;3137;51.550;7.060;2022-10-31T16:48:51;50170.78;;;-142.65;85.90
6208;BME280;3137;51.550;7.060;2022-10-31T16:51:18;50164.81;;;-142.65;86.12
6208;BME280;3137;51.550;7.060;2022-10-31T16:53:44;50170.78;;;-142.65;85.89
6208;BME280;3137;51.550;7.060;2022-10-31T16:56:17;50170.78;;;-142.65;85.95
6208;BME280;3137;51.550;7.060;2022-10-31T16:58:46;50164.81;;;-142.65;86.23
6208;BME280;3137;51.550;7.060;2022-10-31T17:01:12;50170.78;;;-142.65;86.08
6208;BME280;3137;51.550;7.060;2022-10-31T17:03:39;50164.81;;;-142.65;86.07
6208;BME280;3137;51.550;7.060;2022-10-31T17:08:35;50170.78;;;-142.65;86.21
6208;BME280;3137;51.550;7.060;2022-10-31T17:11:02;50168.78;;;-142.65;86.33
6208;BME280;3137;51.550;7.060;2022-10-31T17:13:30;50170.78;;;-142.65;86.12
6208;BME280;3137;51.550;7.060;2022-10-31T17:15:59;50162.81;;;-142.65;86.36
6208;BME280;3137;51.550;7.060;2022-10-31T17:18:26;50170.78;;;-142.65;86.74
6208;BME280;3137;51.550;7.060;2022-10-31T17:20:58;50164.81;;;-142.65;86.77
6208;BME280;3137;51.550;7.060;2022-10-31T17:23:26;50168.78;;;-142.65;87.07
6208;BME280;3137;51.550;7.060;2022-10-31T17:28:20;50174.75;;;-142.65;87.20
6208;BME280;3137;51.550;7.060;2022-10-31T17:33:15;50172.78;;;-142.65;87.02
6208;BME280;3137;51.550;7.060;2022-10-31T17:38:10;50164.81;;;-142.65;87.11
6208;BME280;3137;51.550;7.060;2022-10-31T17:40:38;50164.81;;;-142.65;87.14
6208;BME280;3137;51.550;7.060;2022-10-31T17:43:05;50164.81;;;-142.65;87.13
6208;BME280;3137;51.550;7.060;2022-10-31T17:45:31;50170.78;;;-142.65;87.27
6208;BME280;3137;51.550;7.060;2022-10-31T17:47:58;50170.78;;;-142.65;87.48
6208;BME280;3137;51.550;7.060;2022-10-31T17:50:26;50172.78;;;-142.65;87.34
6208;BME280;3137;51.550;7.060;2022-10-31T17:52:52;50170.78;;;-142.65;87.68
6208;BME280;3137;51.550;7.060;2022-10-31T17:55:19;50170.78;;;-142.65;87.91
6208;BME280;3137;51.550;7.060;2022-10-31T17:57:45;50170.78;;;-142.65;87.98
6208;BME280;3137;51.550;7.060;2022-10-31T18:02:39;50174.75;;;-142.65;87.96
6208;BME280;3137;51.550;7.060;2022-10-31T18:05:06;50170.78;;;-142.65;87.93
6208;BME280;3137;51.550;7.060;2022-10-31T18:07:33;50162.81;;;-142.65;87.40
6208;BME280;3137;51.550;7.060;2022-10-31T18:12:27;50170.78;;;-142.65;87.20
6208;BME280;3137;51.550;7.060;2022-10-31T18:14:53;50172.78;;;-142.65;87.40
6208;BME280;3137;51.550;7.060;2022-10-31T18:17:20;50162.81;;;-142.65;87.50
6208;BME280;3137;51.550;7.060;2022-10-31T18:19:47;50162.81;;;-142.65;87.60
6208;BME280;3137;51.550;7.060;2022-10-31T18:22:13;50170.78;;;-142.65;87.77
6208;BME280;3137;51.550;7.060;2022-10-31T18:24:40;50172.78;;;-142.65;88.02
6208;BME280;3137;51.550;7.060;2022-10-31T18:27:06;50170.78;;;-142.65;87.96
6208;BME280;3137;51.550;7.060;2022-10-31T18:29:33;50168.78;;;-142.65;88.07
6208;BME280;3137;51.550;7.060;2022-10-31T18:31:59;50182.72;;;-142.65;88.33
6208;BME280;3137;51.550;7.060;2022-10-31T18:34:32;50174.75;;;-142.65;88.44
6208;BME280;3137;51.550;7.060;2022-10-31T18:36:58;50162.81;;;-142.65;88.88
6208;BME280;3137;51.550;7.060;2022-10-31T18:39:25;50164.81;;;-142.65;88.97
6208;BME280;3137;51.550;7.060;2022-10-31T18:44:20;50174.75;;;-142.65;89.42